Terminal Aerodrome Forecast
Issued by NWS

Home | Current Version | Previous Version | Text Only | Print | Product List | Glossary On
Versions: 1 2 3 4 5 6 7 8 9 10 11 12 13 14 15 16 17 18 19 20 21 22 23 24 25
107
FTUS43 KGRR 110540
TAFAZO
TAF
KAZO 110540Z 1106/1206 18008KT 4SM -SN BR OVC025
      TEMPO 1106/1108 1 1/2SM -SN BR OVC015
     FM110800 17007KT 1SM -SN BR OVC009
     FM111200 15009KT 1/2SM SN FG OVC004
     FM120500 18007KT 2SM -SN BR OVC008=

USA.gov is the U.S. government's official web portal to all federal, state and local government web resources and services.